Time;durP1;ratioP1;P1;durP2;ratioP2;P2;SDS_P1;SDS_P2;PMS_P1;PMS_P2;Temp;Humidity;BMP_temperature;BMP_pressure;BME280_temperature;BME280_humidity;BME280_pressure;Samples;Min_cycle;Max_cycle;Signal;HPM_P1;HPM_P2
2021/10/18 00:01:31;;;;;;;12.65;7.47;;;;;;;14.08;51.76;100453.85;2447119;80;25371;-77
2021/10/18 00:04:52;;;;;;;13.95;8.18;;;;;;;14.10;51.77;100451.23;2444650;79;25526;-77
2021/10/18 00:08:13;;;;;;;11.88;7.25;;;;;;;14.09;51.80;100452.11;2443291;79;25728;-77
2021/10/18 00:11:34;;;;;;;11.28;7.80;;;;;;;14.08;51.79;100456.91;2446077;80;25701;-78
2021/10/18 00:15:00;;;;;;;10.43;7.03;;;;;;;14.07;51.82;100455.13;2440056;80;30978;-78
2021/10/18 00:18:21;;;;;;;11.50;7.62;;;;;;;14.05;51.84;100455.13;2438871;80;25922;-78
2021/10/18 00:21:49;;;;;;;11.93;8.25;;;;;;;14.06;51.85;100459.94;2446642;80;25657;-77
2021/10/18 00:25:20;;;;;;;11.38;7.80;;;;;;;14.06;51.90;100462.56;2437790;80;25703;-77
2021/10/18 00:28:44;;;;;;;11.83;7.95;;;;;;;14.04;51.91;100453.38;2439187;80;25546;-77
2021/10/18 00:32:05;;;;;;;12.28;7.67;;;;;;;14.05;51.91;100458.19;2433641;80;25624;-78
2021/10/18 00:35:38;;;;;;;13.58;8.20;;;;;;;14.05;51.96;100453.81;2437785;79;25907;-78
2021/10/18 00:38:59;;;;;;;10.15;7.03;;;;;;;14.06;51.93;100457.31;2440414;80;25621;-79
2021/10/18 00:42:29;;;;;;;9.45;7.42;;;;;;;14.05;51.96;100452.51;2439569;80;26108;-78
2021/10/18 00:46:00;;;;;;;9.53;7.15;;;;;;;14.05;51.98;100455.56;2431375;80;25696;-78
2021/10/18 00:49:31;;;;;;;8.30;7.40;;;;;;;14.05;52.00;100452.51;2438731;79;31291;-78
2021/10/18 00:53:29;;;;;;;9.68;6.25;;;;;;;14.06;52.00;100455.56;2313363;83;26204;-79
2021/10/18 00:57:19;;;;;;;9.08;7.12;;;;;;;14.04;52.01;100445.52;2311171;83;25736;-79
2021/10/18 01:00:40;;;;;;;12.33;7.03;;;;;;;14.05;52.01;100457.75;2308229;84;25805;-78
2021/10/18 01:04:13;;;;;;;10.48;6.40;;;;;;;14.07;52.05;100453.41;2316983;83;25660;-78
2021/10/18 01:08:12;;;;;;;10.60;6.08;;;;;;;14.06;52.04;100452.94;2307991;83;25790;-78
2021/10/18 01:11:36;;;;;;;8.68;6.75;;;;;;;13.93;51.98;100434.89;2316618;84;26402;-78
2021/10/18 01:15:04;;;;;;;9.50;6.28;;;;;;;14.07;52.05;100461.28;2318783;83;25761;-78
2021/10/18 01:18:55;;;;;;;8.98;5.92;;;;;;;14.07;52.08;100459.97;2314340;83;26107;-78
2021/10/18 01:22:22;;;;;;;10.25;6.15;;;;;;;14.08;52.06;100460.84;2297696;85;26066;-77
2021/10/18 01:25:43;;;;;;;8.18;5.97;;;;;;;14.08;52.05;100461.72;2299145;84;25729;-77
2021/10/18 01:29:07;;;;;;;8.58;6.55;;;;;;;14.08;52.10;100459.53;2307590;83;25808;-78
2021/10/18 01:32:28;;;;;;;10.28;6.70;;;;;;;14.08;52.11;100461.72;2341267;83;26022;-78
2021/10/18 01:35:52;;;;;;;8.33;6.55;;;;;;;14.07;52.09;100456.04;2338159;83;26468;-77
2021/10/18 01:44:45;;;;;;;7.92;6.15;;;;;;;14.01;52.11;100441.55;2343959;82;26158;-77
2021/10/18 01:48:45;;;;;;;8.53;7.20;;;;;;;14.09;52.13;100459.97;2379958;81;25943;-76
2021/10/18 01:52:09;;;;;;;8.85;6.35;;;;;;;14.07;52.15;100458.66;2410516;80;26544;-77
2021/10/18 01:55:36;;;;;;;7.83;5.87;;;;;;;14.10;52.15;100453.85;2427733;80;25642;-78
2021/10/18 01:59:13;;;;;;;9.45;5.97;;;;;;;13.97;52.16;100434.48;2418019;81;25683;-78
2021/10/18 02:02:31;;;;;;;8.10;6.00;;;;;;;14.08;52.16;100454.29;2433605;81;25757;-78
2021/10/18 02:06:02;;;;;;;9.08;5.25;;;;;;;14.11;52.17;100467.43;2431813;81;25672;-78
2021/10/18 02:09:24;;;;;;;7.50;5.85;;;;;;;14.09;52.19;100464.78;2433481;81;25582;-78
2021/10/18 02:12:45;;;;;;;6.95;5.62;;;;;;;14.09;52.19;100463.47;2435588;79;25692;-78
2021/10/18 02:16:09;;;;;;;7.87;5.80;;;;;;;14.09;52.20;100458.66;2434206;80;25939;-78
2021/10/18 02:19:30;;;;;;;7.62;5.78;;;;;;;14.09;52.09;100459.53;2435310;80;25168;-78
2021/10/18 02:22:51;;;;;;;9.90;5.72;;;;;;;14.09;52.22;100463.91;2430198;81;25872;-78
2021/10/18 02:26:17;;;;;;;5.97;5.35;;;;;;;14.08;52.23;100459.09;2413247;81;25897;-79
2021/10/18 02:29:53;;;;;;;9.05;6.10;;;;;;;14.08;52.25;100464.77;2418817;81;25627;-78
2021/10/18 02:33:22;;;;;;;6.92;6.05;;;;;;;14.08;52.25;100470.89;2418058;81;25739;-77
2021/10/18 02:37:10;;;;;;;7.20;5.53;;;;;;;14.07;52.26;100467.84;2370993;81;25736;-78
2021/10/18 02:40:33;;;;;;;7.10;5.53;;;;;;;14.06;52.29;100457.31;2359281;82;26229;-79
2021/10/18 02:43:54;;;;;;;10.08;6.33;;;;;;;14.05;52.34;100464.30;2392214;79;25775;-78
2021/10/18 02:47:15;;;;;;;12.82;5.70;;;;;;;14.05;52.35;100463.43;2408601;81;31096;-78
2021/10/18 02:50:48;;;;;;;9.50;5.28;;;;;;;14.05;52.38;100466.92;2400867;81;25703;-79
2021/10/18 02:54:12;;;;;;;7.55;5.55;;;;;;;14.04;52.35;100470.42;2329214;83;25721;-79
2021/10/18 02:57:45;;;;;;;8.25;5.67;;;;;;;14.02;52.40;100464.70;2329602;84;25744;-78
2021/10/18 03:01:09;;;;;;;8.53;5.33;;;;;;;14.03;52.41;100468.64;2331896;83;25808;-78
2021/10/18 03:04:32;;;;;;;8.23;5.72;;;;;;;14.02;52.41;100469.52;2336762;84;25761;-78
2021/10/18 03:08:10;;;;;;;10.68;5.75;;;;;;;14.02;52.43;100466.02;2328025;84;26176;-78
2021/10/18 03:12:10;;;;;;;9.05;4.97;;;;;;;14.00;52.47;100465.98;2322756;83;34792;-78
2021/10/18 03:15:43;;;;;;;10.38;5.33;;;;;;;13.97;52.51;100463.76;2205203;87;26043;-79
2021/10/18 03:19:33;;;;;;;6.47;5.15;;;;;;;13.98;52.51;100469.47;2209829;87;26181;-81
2021/10/18 03:22:59;;;;;;;12.35;5.67;;;;;;;13.97;52.53;100481.67;2213345;87;25503;-78
2021/10/18 03:26:36;;;;;;;8.28;5.97;;;;;;;13.96;52.54;100485.16;2216014;87;25673;-78
2021/10/18 03:29:57;;;;;;;7.50;5.20;;;;;;;13.96;52.55;100490.84;2236092;84;25705;-77
2021/10/18 03:33:18;;;;;;;10.08;5.87;;;;;;;13.93;52.55;100495.17;2333118;83;30908;-78
2021/10/18 03:36:44;;;;;;;7.08;5.12;;;;;;;13.91;52.68;100496.91;2304143;83;25809;-78
2021/10/18 03:40:30;;;;;;;9.68;5.30;;;;;;;13.90;52.35;100494.26;2327294;83;25353;-78
2021/10/18 03:43:51;;;;;;;9.03;5.53;;;;;;;13.90;52.35;100494.26;2296439;84;26345;-77
2021/10/18 03:47:12;;;;;;;11.03;5.15;;;;;;;13.89;52.68;100502.56;2286892;85;30949;-78
2021/10/18 03:50:33;;;;;;;8.93;6.03;;;;;;;13.88;52.68;100499.50;2352325;81;25238;-77
2021/10/18 03:53:54;;;;;;;7.72;5.25;;;;;;;13.86;52.75;100502.52;2435412;80;25610;-77
2021/10/18 03:57:16;;;;;;;6.80;5.45;;;;;;;13.85;52.77;100506.01;2426633;81;25636;-79
2021/10/18 04:01:09;;;;;;;7.78;5.83;;;;;;;13.83;52.80;100510.77;2414926;80;25652;-79
2021/10/18 04:05:21;;;;;;;8.30;5.60;;;;;;;13.82;52.86;100512.52;2418364;81;25669;-78
2021/10/18 04:09:05;;;;;;;10.53;5.97;;;;;;;13.82;52.89;100512.52;2415873;81;25664;-76
2021/10/18 04:12:26;;;;;;;11.60;5.60;;;;;;;13.80;52.90;100508.98;2425642;80;26107;-78
2021/10/18 04:15:59;;;;;;;8.05;5.17;;;;;;;13.68;53.00;100502.30;2430722;79;30815;-78
2021/10/18 04:19:20;;;;;;;7.80;5.55;;;;;;;13.68;53.00;100502.30;2422944;80;25672;-78
2021/10/18 04:22:45;;;;;;;9.10;5.35;;;;;;;13.79;52.96;100522.96;2415915;81;30969;-78
2021/10/18 04:26:22;;;;;;;8.50;5.58;;;;;;;13.79;52.99;100529.52;2421267;80;25649;-78
2021/10/18 04:29:48;;;;;;;8.33;5.17;;;;;;;13.78;53.01;100531.69;2407627;81;25617;-78
2021/10/18 04:33:24;;;;;;;10.15;5.50;;;;;;;13.78;53.03;100541.30;2421602;81;25613;-79
2021/10/18 04:36:48;;;;;;;7.40;5.58;;;;;;;13.77;53.04;100535.58;2399920;81;25697;-79
2021/10/18 04:40:31;;;;;;;8.28;5.12;;;;;;;13.76;53.12;100539.08;2421919;81;25605;-80
2021/10/18 04:43:55;;;;;;;9.10;5.50;;;;;;;13.73;53.11;100537.28;2439043;80;25711;-79
2021/10/18 04:47:22;;;;;;;7.95;5.58;;;;;;;13.73;53.16;100542.52;2419615;80;25654;-77
2021/10/18 04:50:42;;;;;;;9.85;6.03;;;;;;;13.70;53.14;100539.46;2401048;80;25611;-78
2021/10/18 04:54:19;;;;;;;10.08;5.25;;;;;;;13.73;53.18;100545.14;2433591;80;30789;-79
2021/10/18 04:58:01;;;;;;;8.20;6.00;;;;;;;13.72;53.17;100553.88;2332664;83;25997;-79
2021/10/18 05:01:35;;;;;;;11.85;6.17;;;;;;;13.68;53.19;100545.09;2256997;85;26172;-78
2021/10/18 05:05:02;;;;;;;7.28;5.92;;;;;;;13.69;53.24;100557.76;2248984;85;26710;-79
2021/10/18 05:08:45;;;;;;;10.80;5.75;;;;;;;13.68;53.27;100569.11;2283894;85;25754;-79
2021/10/18 05:12:11;;;;;;;8.08;5.40;;;;;;;13.67;53.30;100559.06;2197774;87;25911;-78
2021/10/18 05:15:39;;;;;;;10.95;5.65;;;;;;;13.67;53.30;100575.22;2184257;88;30913;-78
2021/10/18 05:19:40;;;;;;;10.95;5.28;;;;;;;13.66;53.32;100573.44;2168496;90;26000;-81
2021/10/18 05:23:07;;;;;;;8.78;5.40;;;;;;;13.65;53.32;100571.25;2190447;88;25889;-78
2021/10/18 05:26:33;;;;;;;8.98;5.80;;;;;;;13.64;53.33;100576.48;2198192;86;26135;-78
2021/10/18 05:30:10;;;;;;;8.83;5.60;;;;;;;13.63;53.38;100582.13;2216883;87;26320;-79
2021/10/18 05:33:37;;;;;;;7.72;4.95;;;;;;;13.62;53.37;100590.84;2174364;88;25302;-78
2021/10/18 05:36:58;;;;;;;6.87;5.17;;;;;;;13.62;53.37;100589.97;2325911;82;26248;-78
2021/10/18 05:40:30;;;;;;;10.82;5.42;;;;;;;13.61;53.39;100589.53;2389876;82;26238;-79
2021/10/18 05:43:54;;;;;;;8.28;5.78;;;;;;;13.62;53.45;100603.95;2397731;81;26176;-78
2021/10/18 05:47:20;;;;;;;6.70;4.58;;;;;;;13.62;53.51;100600.02;2396755;80;25641;-78
2021/10/18 05:50:45;;;;;;;8.90;5.87;;;;;;;13.62;53.54;100605.69;2388944;80;25429;-78
2021/10/18 05:54:07;;;;;;;10.15;5.85;;;;;;;13.62;53.55;100611.81;2401698;82;26416;-79
2021/10/18 05:57:28;;;;;;;9.35;5.08;;;;;;;13.64;53.58;100616.66;2409193;82;25792;-78
2021/10/18 06:01:13;;;;;;;8.15;5.33;;;;;;;13.75;53.55;100613.31;2405343;80;30998;-78
2021/10/18 06:04:36;;;;;;;6.15;5.00;;;;;;;13.75;53.55;100613.31;2404512;80;26348;-78
2021/10/18 06:08:07;;;;;;;7.20;5.17;;;;;;;13.84;53.56;100626.13;2409274;82;25656;-78
2021/10/18 06:11:36;;;;;;;5.67;4.58;;;;;;;13.98;53.40;100636.80;2394632;80;25736;-77
2021/10/18 06:14:56;;;;;;;5.87;4.80;;;;;;;13.98;53.40;100636.80;2404435;81;25984;-78
2021/10/18 06:18:20;;;;;;;8.63;5.15;;;;;;;14.07;53.49;100644.79;2401138;81;31546;-79
2021/10/18 06:21:59;;;;;;;5.15;4.62;;;;;;;14.15;53.48;100626.53;2348794;82;25721;-80
2021/10/18 06:25:25;;;;;;;8.10;4.95;;;;;;;14.12;53.36;100621.24;2383611;82;25720;-78
2021/10/18 06:28:48;;;;;;;6.58;4.92;;;;;;;14.23;53.29;100660.71;2395728;82;25624;-78
2021/10/18 06:32:43;;;;;;;;;;;;;;;;;;;;;
2021/10/18 06:36:14;;;;;;;7.50;5.28;;;;;;;14.27;53.23;100662.50;2433984;79;26014;-78
2021/10/18 06:39:44;;;;;;;5.42;4.37;;;;;;;14.47;53.20;100668.00;2402705;80;26300;-78
2021/10/18 06:47:07;;;;;;;7.80;4.50;;;;;;;14.91;52.77;100672.91;2395973;81;26119;-78
2021/10/18 06:54:40;;;;;;;;;;;;;;;15.39;52.30;100681.72;2359788;82;26142;-78
2021/10/18 06:58:29;;;;;;;5.58;4.37;;;;;;;15.67;51.87;100681.97;2353262;79;25944;-77
2021/10/18 07:06:43;;;;;;;6.65;4.85;;;;;;;15.71;51.92;100680.68;2369942;80;25738;-78
2021/10/18 07:10:26;;;;;;;6.37;3.72;;;;;;;15.76;51.68;100689.50;2382339;82;25846;-78
2021/10/18 07:13:47;;;;;;;6.55;4.80;;;;;;;15.84;51.63;100692.17;2396950;82;25734;-77
2021/10/18 07:17:08;;;;;;;6.33;4.08;;;;;;;15.93;51.57;100691.33;2364813;80;30754;-77
2021/10/18 07:24:28;;;;;;;4.97;4.42;;;;;;;16.00;51.53;100706.31;2394850;80;25773;-77
2021/10/18 07:27:52;;;;;;;5.15;4.60;;;;;;;16.03;51.51;100710.25;2413545;80;25693;-77
2021/10/18 07:31:23;;;;;;;7.20;4.30;;;;;;;16.10;51.51;100717.34;2415211;79;26097;-77
2021/10/18 07:35:16;;;;;;;4.78;3.95;;;;;;;16.15;51.51;100715.59;2431622;79;25938;-76
2021/10/18 07:39:05;;;;;;;5.92;4.40;;;;;;;16.22;51.48;100715.20;2440789;79;25715;-77
2021/10/18 07:42:45;;;;;;;5.47;4.10;;;;;;;16.44;51.37;100728.93;2428678;80;26120;-77
2021/10/18 07:46:32;;;;;;;5.53;3.92;;;;;;;16.49;51.28;100732.45;2418956;79;25808;-76
2021/10/18 07:50:02;;;;;;;5.90;5.28;;;;;;;17.76;51.18;100721.41;2411432;80;25909;-77
2021/10/18 07:53:29;;;;;;;5.37;4.72;;;;;;;19.27;49.50;100727.95;2401380;80;26140;-77
2021/10/18 07:56:53;;;;;;;8.70;4.35;;;;;;;20.38;47.88;100732.29;2401933;80;25670;-79
2021/10/18 08:00:27;;;;;;;5.15;4.37;;;;;;;20.79;46.71;100726.97;2401532;80;25483;-78
2021/10/18 08:03:52;;;;;;;5.00;4.50;;;;;;;20.88;46.28;100732.16;2418001;80;25602;-78
2021/10/18 08:11:01;;;;;;;5.90;3.40;;;;;;;22.66;44.51;100747.84;2424068;79;25668;-77
2021/10/18 08:14:32;;;;;;;3.67;3.27;;;;;;;22.66;43.79;100751.36;2429595;80;26300;-78
2021/10/18 08:18:04;;;;;;;4.83;3.33;;;;;;;22.28;43.68;100752.13;2390162;80;25674;-77
2021/10/18 08:21:27;;;;;;;4.75;3.33;;;;;;;21.87;43.88;100755.91;2402463;80;25893;-77
2021/10/18 08:24:48;;;;;;;3.87;3.15;;;;;;;21.53;44.07;100758.66;2400736;80;25733;-78
2021/10/18 08:28:31;;;;;;;4.83;3.25;;;;;;;21.23;44.36;100756.88;2398019;79;25770;-79
2021/10/18 08:32:32;;;;;;;5.67;3.12;;;;;;;20.95;44.62;100759.01;2376041;80;25954;-79
2021/10/18 08:36:18;;;;;;;3.25;2.75;;;;;;;20.70;45.11;100761.10;2362114;80;25661;-77
2021/10/18 08:47:03;;;;;;;4.33;2.65;;;;;;;20.09;46.04;100770.55;2382380;82;25728;-77
2021/10/18 08:50:30;;;;;;;5.47;3.83;;;;;;;19.91;46.38;100776.89;2382157;82;26313;-77
2021/10/18 08:53:51;;;;;;;3.40;2.75;;;;;;;19.78;46.68;100769.94;2365935;82;25725;-77
2021/10/18 08:57:12;;;;;;;3.72;2.50;;;;;;;19.75;46.92;100764.22;2340416;83;25713;-77
2021/10/18 09:00:58;;;;;;;3.80;2.35;;;;;;;19.85;47.12;100774.28;2353921;82;25826;-77
2021/10/18 09:04:28;;;;;;;4.08;2.85;;;;;;;20.67;47.23;100776.58;2414892;80;25724;-78
2021/10/18 09:07:49;;;;;;;4.72;2.90;;;;;;;21.63;46.41;100776.19;2428900;80;25629;-78
2021/10/18 09:11:24;;;;;;;4.50;2.75;;;;;;;22.99;45.69;100772.42;2390458;81;25684;-79
2021/10/18 09:14:45;;;;;;;5.15;3.02;;;;;;;23.97;44.53;100783.47;2403096;81;25631;-78
2021/10/18 09:18:06;;;;;;;3.05;2.60;;;;;;;24.40;43.08;100790.38;2431910;79;25696;-78
2021/10/18 09:21:40;;;;;;;4.00;2.75;;;;;;;24.49;42.87;100786.56;2434004;79;25677;-78
2021/10/18 09:25:01;;;;;;;2.85;2.33;;;;;;;25.00;42.16;100786.00;2321424;84;25919;-79
2021/10/18 09:28:27;;;;;;;2.33;2.05;;;;;;;26.41;41.52;100788.61;2346414;82;25765;-78
2021/10/18 09:32:03;;;;;;;3.05;2.10;;;;;;;27.05;40.74;100783.13;2313130;83;26524;-78
2021/10/18 09:35:25;;;;;;;2.45;2.25;;;;;;;28.25;39.61;100789.03;2326376;83;25923;-78
2021/10/18 09:38:48;;;;;;;3.83;1.72;;;;;;;28.65;38.51;100790.86;2305531;84;25746;-77
2021/10/18 09:42:19;;;;;;;3.77;2.15;;;;;;;28.53;38.06;100787.84;2323696;83;26488;-78
2021/10/18 09:46:24;;;;;;;2.12;1.75;;;;;;;28.59;37.81;100783.08;2347923;83;25756;-79
2021/10/18 10:53:17;;;;;;;2.00;1.37;;;;;;;27.02;40.04;100785.05;2447227;80;25708;-80
2021/10/18 11:00:08;;;;;;;1.77;1.07;;;;;;;27.33;40.69;100778.53;2448727;80;26422;-80
2021/10/18 11:03:40;;;;;;;1.02;0.95;;;;;;;27.52;40.78;100774.19;2408716;80;25664;-80
2021/10/18 11:07:13;;;;;;;2.40;1.15;;;;;;;27.84;40.79;100786.28;2447952;80;25717;-81
2021/10/18 11:10:34;;;;;;;3.05;1.25;;;;;;;27.90;40.59;100783.34;2446455;80;25681;-81
2021/10/18 11:14:00;;;;;;;1.55;1.00;;;;;;;27.50;40.71;100786.76;2449137;80;25617;-80
2021/10/18 11:17:24;;;;;;;1.32;1.20;;;;;;;27.74;41.03;100781.77;2448169;80;25594;-80
2021/10/18 11:20:45;;;;;;;0.68;0.68;;;;;;;28.44;40.57;100781.94;2446166;80;25714;-80
2021/10/18 11:24:12;;;;;;;1.40;1.12;;;;;;;29.15;40.01;100771.55;2448338;80;25735;-78
2021/10/18 11:27:38;;;;;;;0.78;0.75;;;;;;;29.45;39.24;100768.81;2446492;80;25609;-81
2021/10/18 11:31:00;;;;;;;1.05;0.95;;;;;;;29.37;39.08;100775.44;2447845;80;25683;-81
2021/10/18 11:34:21;;;;;;;1.40;0.82;;;;;;;29.73;38.88;100775.93;2448847;80;25695;-80
2021/10/18 11:38:01;;;;;;;1.15;0.93;;;;;;;30.36;38.35;100779.47;2449010;80;25741;-81
2021/10/18 11:41:22;;;;;;;1.67;0.88;;;;;;;30.96;37.64;100780.34;2449094;80;25156;-81
2021/10/18 11:44:55;;;;;;;1.10;1.00;;;;;;;30.78;37.28;100784.43;2446991;78;25582;-80
2021/10/18 11:48:36;;;;;;;0.98;0.80;;;;;;;30.89;37.26;100790.57;2431161;80;26317;-81
2021/10/18 11:51:43;;;;;;;1.57;0.95;;;;;;;31.23;36.93;100784.66;2421031;80;25638;-81
2021/10/18 11:55:08;;;;;;;0.95;0.85;;;;;;;30.83;36.78;100793.59;2415760;80;26303;-85
2021/10/18 11:58:42;;;;;;;1.10;0.80;;;;;;;30.81;37.10;100799.08;2423677;79;25726;-82
2021/10/18 12:02:19;;;;;;;4.75;1.10;;;;;;;31.22;36.98;100803.14;2419907;81;25745;-81
2021/10/18 12:05:48;;;;;;;3.33;0.90;;;;;;;30.83;32.42;100790.03;2400247;81;25856;-81
2021/10/18 12:09:09;;;;;;;4.97;1.07;;;;;;;29.95;30.33;100791.86;2414133;80;25721;-80
2021/10/18 12:12:30;;;;;;;2.47;1.07;;;;;;;29.46;29.44;100785.32;2432684;80;25716;-82
2021/10/18 12:16:06;;;;;;;2.65;0.82;;;;;;;29.32;28.19;100784.64;2441274;79;25246;-82
2021/10/18 12:19:30;;;;;;;1.37;0.80;;;;;;;29.38;27.44;100773.61;2458368;79;25759;-81
2021/10/18 12:23:05;;;;;;;1.62;0.70;;;;;;;29.32;27.47;100775.25;2463347;79;25981;-82
2021/10/18 12:26:43;;;;;;;2.22;1.07;;;;;;;29.01;26.82;100778.05;2470110;79;26153;-82
2021/10/18 12:30:05;;;;;;;2.25;1.00;;;;;;;28.97;26.29;100784.95;2418755;79;25777;-81
2021/10/18 12:33:38;;;;;;;1.95;0.93;;;;;;;28.89;26.33;100794.23;2432370;81;25670;-82
2021/10/18 12:37:09;;;;;;;2.40;1.20;;;;;;;28.88;26.11;100792.95;2433318;80;25694;-81
2021/10/18 12:40:30;;;;;;;1.95;1.00;;;;;;;28.37;25.83;100789.82;2434378;79;25741;-81
2021/10/18 12:43:53;;;;;;;2.20;1.07;;;;;;;27.92;25.97;100784.17;2433368;81;25169;-84
2021/10/18 12:47:24;;;;;;;3.83;1.10;;;;;;;27.86;26.25;100773.70;2441367;79;25733;-82
2021/10/18 12:50:45;;;;;;;1.32;1.00;;;;;;;27.77;26.63;100780.77;2444329;79;25685;-80
2021/10/18 12:54:39;;;;;;;2.65;1.17;;;;;;;27.74;26.69;100776.84;2444732;79;26251;-84
2021/10/18 12:58:03;;;;;;;3.35;1.40;;;;;;;27.87;26.59;100774.09;2444601;79;25631;-83
2021/10/18 13:01:24;;;;;;;2.27;1.42;;;;;;;27.92;25.99;100777.94;2444350;81;25625;-82
2021/10/18 13:05:14;;;;;;;7.58;1.12;;;;;;;27.90;25.46;100778.46;2444908;81;25646;-80
2021/10/18 13:08:35;;;;;;;5.58;1.30;;;;;;;27.41;25.66;100783.13;2444569;79;25169;-82
2021/10/18 13:11:56;;;;;;;1.95;1.10;;;;;;;27.32;25.79;100777.66;2444944;81;26368;-82
2021/10/18 13:15:20;;;;;;;2.02;1.20;;;;;;;27.57;25.60;100784.23;2444270;81;25626;-83
2021/10/18 13:18:40;;;;;;;4.03;1.20;;;;;;;27.71;25.38;100776.53;2444183;79;26787;-83
2021/10/18 13:22:02;;;;;;;2.02;1.22;;;;;;;27.75;25.22;100772.78;2444640;79;25729;-82
2021/10/18 13:25:28;;;;;;;3.08;1.25;;;;;;;27.74;25.28;100774.17;2444683;79;25725;-82
2021/10/18 13:28:49;;;;;;;4.87;1.35;;;;;;;27.39;25.61;100770.27;2444348;79;25682;-82
2021/10/18 13:32:13;;;;;;;2.22;1.42;;;;;;;27.07;25.63;100767.89;2444381;81;25688;-82
2021/10/18 13:35:35;;;;;;;1.70;1.25;;;;;;;27.03;25.90;100778.75;2388945;81;25769;-83
2021/10/18 13:38:57;;;;;;;3.10;1.20;;;;;;;26.90;26.04;100778.81;2392027;82;25755;-82
2021/10/18 13:42:19;;;;;;;4.00;1.50;;;;;;;26.72;25.97;100781.25;2372578;82;25662;-80
2021/10/18 13:45:40;;;;;;;1.20;1.00;;;;;;;26.21;26.04;100784.83;2392189;82;25672;-83
2021/10/18 13:49:03;;;;;;;2.83;1.35;;;;;;;25.57;26.25;100788.29;2388239;82;25655;-81
2021/10/18 13:52:26;;;;;;;4.08;1.75;;;;;;;24.92;26.49;100790.70;2395084;81;25675;-84
2021/10/18 13:55:50;;;;;;;1.75;1.27;;;;;;;24.31;27.12;100794.58;2364202;82;25686;-82
2021/10/18 13:59:12;;;;;;;1.70;1.20;;;;;;;23.77;26.91;100799.94;2449835;79;25942;-83
2021/10/18 14:02:33;;;;;;;3.62;0.85;;;;;;;23.17;27.34;100808.83;2449153;79;25756;-85
2021/10/18 14:05:54;;;;;;;2.83;1.00;;;;;;;22.66;27.77;100808.51;2441700;79;25652;-81
2021/10/18 14:09:15;;;;;;;2.55;1.10;;;;;;;22.20;28.18;100797.84;2443194;80;25759;-82
2021/10/18 14:12:38;;;;;;;2.12;1.05;;;;;;;21.89;28.44;100806.30;2442553;81;25931;-83
2021/10/18 14:16:00;;;;;;;3.22;1.45;;;;;;;21.55;28.86;100800.19;2443030;80;25732;-80
2021/10/18 14:19:21;;;;;;;3.50;1.60;;;;;;;21.18;29.29;100799.80;2446193;79;25653;-82
2021/10/18 14:22:42;;;;;;;4.75;1.40;;;;;;;20.80;29.93;100803.81;2434706;80;25660;-83
2021/10/18 14:26:03;;;;;;;4.65;1.12;;;;;;;20.46;30.42;100800.18;2433784;80;25719;-84
2021/10/18 14:29:24;;;;;;;2.10;1.20;;;;;;;20.20;30.79;100803.53;2422741;78;25969;-83
2021/10/18 14:32:45;;;;;;;2.52;0.80;;;;;;;19.94;31.24;100795.80;2421580;80;25709;-84
2021/10/18 14:36:07;;;;;;;2.22;1.30;;;;;;;19.63;31.64;100793.81;2435870;78;25772;-84
2021/10/18 14:39:28;;;;;;;2.08;0.90;;;;;;;19.33;32.17;100790.47;2441892;81;25654;-84
2021/10/18 14:42:48;;;;;;;2.42;1.20;;;;;;;19.05;32.74;100787.10;2443021;81;25784;-83
2021/10/18 14:46:10;;;;;;;2.80;1.07;;;;;;;18.83;33.18;100785.89;2441219;79;25779;-81
2021/10/18 14:49:31;;;;;;;6.03;1.35;;;;;;;18.58;33.70;100785.48;2432201;80;25895;-80
2021/10/18 14:52:52;;;;;;;2.67;1.45;;;;;;;18.34;34.18;100791.25;2431526;80;25721;-77
2021/10/18 14:56:15;;;;;;;1.57;1.22;;;;;;;18.15;34.67;100791.70;2430459;79;25705;-79
2021/10/18 14:59:59;;;;;;;5.75;1.20;;;;;;;17.97;35.05;100792.17;2409173;80;25713;-84
2021/10/18 15:03:20;;;;;;;2.58;1.30;;;;;;;17.73;35.62;100796.52;2383760;81;26438;-80
2021/10/18 15:06:44;;;;;;;1.92;1.60;;;;;;;17.56;36.07;100792.99;2384941;80;25720;-81
2021/10/18 15:10:18;;;;;;;6.50;1.27;;;;;;;17.36;36.55;100790.31;2372217;81;25735;-83
2021/10/18 15:13:39;;;;;;;6.12;1.87;;;;;;;17.25;37.01;100797.33;2371812;83;25730;-82
2021/10/18 15:17:02;;;;;;;4.40;1.85;;;;;;;17.07;37.42;100798.12;2374074;81;25742;-83
2021/10/18 15:20:25;;;;;;;3.55;1.47;;;;;;;16.90;37.84;100796.29;2373934;81;25755;-82
2021/10/18 15:23:59;;;;;;;2.87;1.50;;;;;;;16.78;38.24;100799.33;2372146;83;25909;-79
2021/10/18 15:27:35;;;;;;;5.05;1.40;;;;;;;16.66;38.58;100801.41;2294474;84;25682;-79
2021/10/18 15:30:57;;;;;;;2.45;1.40;;;;;;;16.69;40.30;100810.20;2295241;84;25931;-79
2021/10/18 15:34:34;;;;;;;4.97;1.57;;;;;;;17.12;40.57;100814.39;2303705;84;25828;-79
2021/10/18 15:38:12;;;;;;;7.28;1.45;;;;;;;17.46;40.77;100810.55;2315546;85;25730;-80
2021/10/18 15:41:33;;;;;;;2.33;1.15;;;;;;;17.70;41.02;100809.70;2319478;83;25742;-79
2021/10/18 15:44:57;;;;;;;4.90;1.22;;;;;;;17.91;41.13;100820.73;2318798;85;31332;-79
2021/10/18 15:48:32;;;;;;;4.72;1.42;;;;;;;18.04;41.23;100819.86;2324096;82;25782;-79
2021/10/18 15:51:53;;;;;;;5.40;1.45;;;;;;;18.14;41.29;100818.11;2374538;81;25696;-81
2021/10/18 15:55:17;;;;;;;6.42;2.00;;;;;;;18.23;41.33;100820.75;2401969;81;25693;-78
2021/10/18 15:58:38;;;;;;;2.95;1.40;;;;;;;18.46;42.14;100806.63;2408430;80;25565;-76
2021/10/18 16:02:00;;;;;;;5.40;1.52;;;;;;;18.89;42.14;100811.38;2408281;81;25672;-77
2021/10/18 16:05:21;;;;;;;4.53;1.47;;;;;;;19.23;41.92;100821.36;2408890;82;25632;-78
2021/10/18 16:08:43;;;;;;;6.00;1.40;;;;;;;19.52;41.74;100816.37;2409512;81;25620;-78
2021/10/18 16:12:04;;;;;;;8.53;1.77;;;;;;;19.74;41.54;100818.03;2409336;81;25625;-78
2021/10/18 16:15:25;;;;;;;6.75;1.75;;;;;;;19.86;41.42;100830.27;2411877;78;26476;-78
2021/10/18 16:18:48;;;;;;;6.70;1.22;;;;;;;19.77;41.35;100827.69;2488609;78;26368;-80
2021/10/18 16:22:11;;;;;;;2.90;1.10;;;;;;;19.66;41.32;100839.67;2444519;79;25669;-79
2021/10/18 16:25:32;;;;;;;3.58;1.80;;;;;;;19.53;41.36;100838.83;2436745;78;25696;-79
2021/10/18 16:29:01;;;;;;;2.90;1.87;;;;;;;19.43;41.40;100842.86;2455474;78;25730;-82
2021/10/18 16:32:33;;;;;;;4.05;1.57;;;;;;;19.35;41.46;100845.09;2445403;78;25640;-78
2021/10/18 16:35:54;;;;;;;2.85;1.65;;;;;;;19.30;41.50;100844.27;2444386;79;25833;-78
2021/10/18 16:39:15;;;;;;;3.30;1.70;;;;;;;19.27;41.54;100846.92;2444597;79;25643;-79
2021/10/18 16:42:38;;;;;;;4.37;1.75;;;;;;;19.25;41.55;100842.52;2444483;79;25211;-77
2021/10/18 16:45:59;;;;;;;8.25;2.10;;;;;;;19.41;42.00;100842.01;2366030;82;25620;-79
2021/10/18 16:49:20;;;;;;;3.10;2.40;;;;;;;19.70;41.82;100835.23;2371360;81;25635;-78
2021/10/18 16:52:41;;;;;;;5.95;2.42;;;;;;;19.75;41.58;100841.39;2377681;81;25773;-79
2021/10/18 16:56:06;;;;;;;9.13;2.93;;;;;;;19.64;41.51;100832.63;2398614;82;26305;-78
2021/10/18 16:59:27;;;;;;;7.10;3.27;;;;;;;19.48;41.38;100835.34;2396768;82;26360;-78
2021/10/18 17:02:48;;;;;;;3.90;3.08;;;;;;;19.36;41.38;100842.01;2387262;81;25685;-80
2021/10/18 17:06:11;;;;;;;3.22;1.80;;;;;;;19.24;41.37;100839.00;2357062;82;25918;-80
2021/10/18 17:09:35;;;;;;;10.82;2.42;;;;;;;19.19;42.28;100825.36;2348662;83;25698;-83
2021/10/18 17:12:59;;;;;;;9.43;3.25;;;;;;;19.35;42.12;100841.14;2327508;82;26287;-79
2021/10/18 17:16:19;;;;;;;7.58;2.55;;;;;;;19.31;42.28;100843.37;2347654;82;25668;-78
2021/10/18 17:19:41;;;;;;;8.58;2.62;;;;;;;19.25;42.40;100840.75;2369809;82;31429;-79
2021/10/18 17:23:02;;;;;;;6.50;3.05;;;;;;;19.20;42.47;100839.00;2422364;79;25719;-77
2021/10/18 17:26:24;;;;;;;4.25;2.80;;;;;;;19.12;42.54;100833.75;2432743;81;25590;-77
2021/10/18 17:29:45;;;;;;;7.87;4.28;;;;;;;19.07;42.66;100833.78;2417089;80;25693;-82
2021/10/18 17:33:06;;;;;;;8.00;4.67;;;;;;;19.03;42.82;100835.98;2394968;78;25698;-82
2021/10/18 17:36:27;;;;;;;6.45;4.20;;;;;;;18.99;43.05;100843.94;2396131;81;25602;-81
2021/10/18 17:39:48;;;;;;;9.68;4.17;;;;;;;18.95;43.28;100853.64;2396577;81;25196;-81
2021/10/18 17:43:09;;;;;;;4.25;3.77;;;;;;;18.92;43.44;100860.25;2415035;78;27113;-83
2021/10/18 17:46:31;;;;;;;8.55;4.97;;;;;;;18.88;43.53;100869.08;2425082;81;25661;-85
2021/10/18 17:49:52;;;;;;;5.05;3.85;;;;;;;18.84;43.66;100866.89;2450745;79;26293;-82